FIN1ZR EFHK-EFRO
Flight info
| Callsign | FIN1ZR |
|---|---|
| Flight time | 1h 5m |
| Altitude | 36000 |
| Route | TEVRU Y75 MIMRU DCT EVSET Y86 RENVI |
| Aircraft | A321/M-SDE1E2E3FGHIJ1J4J5M1RWXYZ/LB1D1 |
Departure
| Time | 2026-04-26 15:08 |
|---|---|
| Airport | Helsinki Vantaa Airport (EFHK) |
Arrival
| Time | 2026-04-26 16:13 |
|---|---|
| Airport | Rovaniemi Airport (EFRO) |
| Time | Latitude | Longitude | Altitude | Speed | Heading |
|---|---|---|---|---|---|
| 2026-04-26 14:34 | 60.31841 | 24.96466 | 164 ft | 0 kts | 137° |
| 2026-04-26 14:58 | 60.31841 | 24.96465 | 163 ft | 1 kts | 137° |
| 2026-04-26 14:58 | 60.31860 | 24.96432 | 163 ft | 4 kts | 143° |
| 2026-04-26 14:58 | 60.31882 | 24.96407 | 163 ft | 4 kts | 176° |
| 2026-04-26 14:59 | 60.31899 | 24.96420 | 163 ft | 4 kts | 227° |
| 2026-04-26 14:59 | 60.31915 | 24.96456 | 163 ft | 1 kts | 227° |
| 2026-04-26 14:59 | 60.31916 | 24.96457 | 163 ft | 0 kts | 227° |
| 2026-04-26 15:02 | 60.31903 | 24.96430 | 163 ft | 6 kts | 227° |
| 2026-04-26 15:03 | 60.31858 | 24.96312 | 163 ft | 14 kts | 244° |
| 2026-04-26 15:03 | 60.31875 | 24.96119 | 165 ft | 15 kts | 321° |
| 2026-04-26 15:03 | 60.31935 | 24.96179 | 167 ft | 11 kts | 47° |
| 2026-04-26 15:03 | 60.31994 | 24.96309 | 166 ft | 14 kts | 47° |
| 2026-04-26 15:04 | 60.32069 | 24.96473 | 166 ft | 17 kts | 47° |
| 2026-04-26 15:04 | 60.32153 | 24.96658 | 166 ft | 19 kts | 48° |
| 2026-04-26 15:04 | 60.32236 | 24.96852 | 164 ft | 13 kts | 60° |
| 2026-04-26 15:04 | 60.32179 | 24.96980 | 162 ft | 16 kts | 153° |
| 2026-04-26 15:05 | 60.32070 | 24.97093 | 162 ft | 19 kts | 153° |
| 2026-04-26 15:05 | 60.31991 | 24.97174 | 162 ft | 20 kts | 153° |
| 2026-04-26 15:05 | 60.31822 | 24.97348 | 162 ft | 21 kts | 153° |
| 2026-04-26 15:05 | 60.31686 | 24.97489 | 161 ft | 23 kts | 153° |
| 2026-04-26 15:06 | 60.31544 | 24.97633 | 162 ft | 23 kts | 153° |
| 2026-04-26 15:06 | 60.31412 | 24.97771 | 161 ft | 17 kts | 153° |
| 2026-04-26 15:06 | 60.31299 | 24.97886 | 162 ft | 19 kts | 153° |
| 2026-04-26 15:06 | 60.31169 | 24.98018 | 162 ft | 24 kts | 153° |
| 2026-04-26 15:07 | 60.30984 | 24.98354 | 158 ft | 17 kts | 63° |
| 2026-04-26 15:07 | 60.31040 | 24.98483 | 155 ft | 8 kts | 351° |
| 2026-04-26 15:07 | 60.31122 | 24.98405 | 156 ft | 29 kts | 333° |
| 2026-04-26 15:08 | 60.31517 | 24.97997 | 156 ft | 99 kts | 333° |
| 2026-04-26 15:08 | 60.32292 | 24.97201 | 329 ft | 136 kts | 332° |
| 2026-04-26 15:08 | 60.33101 | 24.96375 | 1234 ft | 128 kts | 336° |
| 2026-04-26 15:08 | 60.33888 | 24.95567 | 1874 ft | 131 kts | 335° |
| 2026-04-26 15:09 | 60.34762 | 24.94680 | 2243 ft | 151 kts | 335° |
| 2026-04-26 15:09 | 60.35767 | 24.93653 | 2526 ft | 173 kts | 335° |
| 2026-04-26 15:09 | 60.36914 | 24.92481 | 2785 ft | 197 kts | 335° |
| 2026-04-26 15:09 | 60.38217 | 24.91142 | 3172 ft | 220 kts | 334° |
| 2026-04-26 15:10 | 60.39590 | 24.89719 | 3952 ft | 228 kts | 334° |
| 2026-04-26 15:10 | 60.40577 | 24.88692 | 4266 ft | 243 kts | 334° |
| 2026-04-26 15:10 | 60.42745 | 24.86717 | 4840 ft | 270 kts | 345° |
| 2026-04-26 15:10 | 60.44633 | 24.86274 | 5667 ft | 276 kts | 356° |
| 2026-04-26 15:11 | 60.46564 | 24.86086 | 6613 ft | 278 kts | 355° |
| 2026-04-26 15:11 | 60.48494 | 24.85905 | 7428 ft | 283 kts | 358° |
| 2026-04-26 15:11 | 60.50486 | 24.85966 | 8256 ft | 289 kts | 0° |
| 2026-04-26 15:11 | 60.52517 | 24.86136 | 9063 ft | 294 kts | 1° |
| 2026-04-26 15:12 | 60.54590 | 24.86356 | 9840 ft | 299 kts | 1° |
| 2026-04-26 15:12 | 60.56657 | 24.86591 | 10616 ft | 303 kts | 1° |
| 2026-04-26 15:12 | 60.58776 | 24.86830 | 11416 ft | 306 kts | 1° |
| 2026-04-26 15:12 | 60.60927 | 24.87066 | 12145 ft | 310 kts | 1° |
| 2026-04-26 15:13 | 60.63115 | 24.87296 | 12876 ft | 315 kts | 2° |
| 2026-04-26 15:13 | 60.65295 | 24.87521 | 13614 ft | 319 kts | 1° |
| 2026-04-26 15:13 | 60.67524 | 24.87751 | 14330 ft | 321 kts | 1° |
| 2026-04-26 15:13 | 60.69781 | 24.87978 | 14956 ft | 327 kts | 1° |
| 2026-04-26 15:14 | 60.72077 | 24.88205 | 15549 ft | 334 kts | 1° |
| 2026-04-26 15:14 | 60.74421 | 24.88436 | 16264 ft | 337 kts | 1° |
| 2026-04-26 15:14 | 60.76749 | 24.88668 | 16954 ft | 340 kts | 1° |
| 2026-04-26 15:14 | 60.79136 | 24.88905 | 17597 ft | 345 kts | 1° |
| 2026-04-26 15:15 | 60.81553 | 24.89146 | 18190 ft | 351 kts | 1° |
| 2026-04-26 15:15 | 60.84028 | 24.89389 | 18679 ft | 357 kts | 2° |
| 2026-04-26 15:15 | 60.86491 | 24.89637 | 19325 ft | 358 kts | 0° |
| 2026-04-26 15:15 | 60.89001 | 24.89897 | 19909 ft | 362 kts | 1° |
| 2026-04-26 15:16 | 60.91531 | 24.90157 | 20473 ft | 367 kts | 0° |
| 2026-04-26 15:16 | 60.94094 | 24.90414 | 21110 ft | 369 kts | 1° |
| 2026-04-26 15:16 | 60.96668 | 24.90673 | 21750 ft | 370 kts | 1° |
| 2026-04-26 15:16 | 60.99227 | 24.90934 | 22301 ft | 374 kts | 1° |
| 2026-04-26 15:17 | 61.01841 | 24.91199 | 22753 ft | 379 kts | 1° |
| 2026-04-26 15:17 | 61.03623 | 24.91380 | 23233 ft | 378 kts | 1° |
| 2026-04-26 15:17 | 61.07101 | 24.91743 | 23997 ft | 377 kts | 1° |
| 2026-04-26 15:17 | 61.09737 | 24.92024 | 24462 ft | 379 kts | 1° |
| 2026-04-26 15:18 | 61.12378 | 24.92304 | 24899 ft | 381 kts | 1° |
| 2026-04-26 15:18 | 61.15004 | 24.92577 | 25275 ft | 385 kts | 1° |
| 2026-04-26 15:18 | 61.17707 | 24.92856 | 25641 ft | 389 kts | 1° |
| 2026-04-26 15:18 | 61.20427 | 24.93135 | 26036 ft | 392 kts | 1° |
| 2026-04-26 15:19 | 61.23163 | 24.93416 | 26431 ft | 394 kts | 1° |
| 2026-04-26 15:19 | 61.25914 | 24.93695 | 26827 ft | 397 kts | 1° |
| 2026-04-26 15:19 | 61.28685 | 24.93976 | 27208 ft | 399 kts | 1° |
| 2026-04-26 15:19 | 61.31467 | 24.94266 | 27600 ft | 401 kts | 1° |
| 2026-04-26 15:20 | 61.34235 | 24.94562 | 27967 ft | 404 kts | 1° |
| 2026-04-26 15:20 | 61.37059 | 24.94865 | 28344 ft | 406 kts | 1° |
| 2026-04-26 15:20 | 61.39892 | 24.95170 | 28706 ft | 408 kts | 1° |
| 2026-04-26 15:20 | 61.42743 | 24.95478 | 29047 ft | 410 kts | 1° |
| 2026-04-26 15:21 | 61.45571 | 24.95781 | 29404 ft | 413 kts | 1° |
| 2026-04-26 15:21 | 61.48460 | 24.96084 | 29651 ft | 417 kts | 1° |
| 2026-04-26 15:21 | 61.51379 | 24.96386 | 29950 ft | 420 kts | 1° |
| 2026-04-26 15:21 | 61.54315 | 24.96692 | 30209 ft | 423 kts | 1° |
| 2026-04-26 15:22 | 61.57266 | 24.96997 | 30461 ft | 425 kts | 1° |
| 2026-04-26 15:22 | 61.60225 | 24.97305 | 30791 ft | 426 kts | 1° |
| 2026-04-26 15:22 | 61.63150 | 24.97617 | 31137 ft | 425 kts | 1° |
| 2026-04-26 15:22 | 61.66115 | 24.97939 | 31475 ft | 426 kts | 1° |
| 2026-04-26 15:23 | 61.69078 | 24.98267 | 31806 ft | 426 kts | 1° |
| 2026-04-26 15:23 | 61.72040 | 24.98590 | 32135 ft | 426 kts | 1° |
| 2026-04-26 15:23 | 61.75012 | 24.98909 | 32453 ft | 427 kts | 1° |
| 2026-04-26 15:23 | 61.77949 | 24.99221 | 32773 ft | 427 kts | 1° |
| 2026-04-26 15:24 | 61.80923 | 24.99533 | 33043 ft | 428 kts | 1° |
| 2026-04-26 15:24 | 61.83903 | 24.99851 | 33408 ft | 427 kts | 1° |
| 2026-04-26 15:24 | 61.86875 | 25.00174 | 33752 ft | 427 kts | 1° |
| 2026-04-26 15:24 | 61.89842 | 25.00496 | 34045 ft | 427 kts | 1° |
| 2026-04-26 15:25 | 61.92820 | 25.00820 | 34289 ft | 427 kts | 1° |
| 2026-04-26 15:25 | 61.94790 | 25.01035 | 34451 ft | 428 kts | 1° |
| 2026-04-26 15:25 | 61.98739 | 25.01470 | 34766 ft | 428 kts | 1° |
| 2026-04-26 15:25 | 62.01728 | 25.01799 | 35010 ft | 429 kts | 1° |
| 2026-04-26 15:26 | 62.04711 | 25.02124 | 35250 ft | 429 kts | 1° |
| 2026-04-26 15:26 | 62.07664 | 25.02444 | 35486 ft | 430 kts | 1° |
| 2026-04-26 15:26 | 62.10653 | 25.02770 | 35719 ft | 431 kts | 1° |
| 2026-04-26 15:26 | 62.13654 | 25.03105 | 35815 ft | 432 kts | 1° |
| 2026-04-26 15:27 | 62.19654 | 25.03789 | 35841 ft | 431 kts | 1° |
| 2026-04-26 15:27 | 62.25654 | 25.04457 | 35823 ft | 430 kts | 1° |
| 2026-04-26 15:28 | 62.31606 | 25.05106 | 35835 ft | 430 kts | 1° |
| 2026-04-26 15:28 | 62.37605 | 25.05762 | 35834 ft | 430 kts | 1° |
| 2026-04-26 15:29 | 62.43562 | 25.06441 | 35851 ft | 430 kts | 1° |
| 2026-04-26 15:30 | 62.55538 | 25.07794 | 35855 ft | 431 kts | 1° |
| 2026-04-26 15:30 | 62.60531 | 25.08359 | 35848 ft | 431 kts | 1° |
| 2026-04-26 15:31 | 62.69520 | 25.09384 | 35860 ft | 430 kts | 1° |
| 2026-04-26 15:32 | 62.77455 | 25.10296 | 35886 ft | 430 kts | 1° |
| 2026-04-26 15:32 | 62.84433 | 25.11108 | 35878 ft | 431 kts | 1° |
| 2026-04-26 15:33 | 62.90432 | 25.11807 | 35866 ft | 431 kts | 1° |
| 2026-04-26 15:33 | 62.96440 | 25.12504 | 35867 ft | 431 kts | 1° |
| 2026-04-26 15:34 | 63.02432 | 25.13197 | 35867 ft | 431 kts | 1° |
| 2026-04-26 15:34 | 63.08435 | 25.13896 | 35896 ft | 432 kts | 1° |
| 2026-04-26 15:35 | 63.14414 | 25.14606 | 35881 ft | 432 kts | 1° |
| 2026-04-26 15:35 | 63.20437 | 25.15325 | 35878 ft | 433 kts | 1° |
| 2026-04-26 15:36 | 63.26465 | 25.16042 | 35873 ft | 433 kts | 1° |
| 2026-04-26 15:36 | 63.32454 | 25.16768 | 35872 ft | 433 kts | 1° |
| 2026-04-26 15:37 | 63.38485 | 25.17490 | 35875 ft | 433 kts | 1° |
| 2026-04-26 15:37 | 63.44509 | 25.18204 | 35887 ft | 433 kts | 1° |
| 2026-04-26 15:38 | 63.50498 | 25.18921 | 35884 ft | 433 kts | 1° |
| 2026-04-26 15:38 | 63.56534 | 25.19666 | 35881 ft | 433 kts | 1° |
| 2026-04-26 15:39 | 63.62569 | 25.20401 | 35878 ft | 433 kts | 1° |
| 2026-04-26 15:39 | 63.67575 | 25.21007 | 35873 ft | 434 kts | 1° |
| 2026-04-26 15:40 | 63.74593 | 25.21869 | 35892 ft | 434 kts | 1° |
| 2026-04-26 15:40 | 63.80636 | 25.22611 | 35886 ft | 434 kts | 1° |
| 2026-04-26 15:41 | 63.86643 | 25.23355 | 35885 ft | 434 kts | 1° |
| 2026-04-26 15:41 | 63.92687 | 25.24109 | 35876 ft | 434 kts | 1° |
| 2026-04-26 15:42 | 63.98730 | 25.24872 | 35874 ft | 435 kts | 1° |
| 2026-04-26 15:42 | 64.04781 | 25.25628 | 35887 ft | 435 kts | 1° |
| 2026-04-26 15:43 | 64.10802 | 25.26391 | 35892 ft | 435 kts | 1° |
| 2026-04-26 15:44 | 64.19886 | 25.27528 | 35866 ft | 435 kts | 1° |
| 2026-04-26 15:44 | 64.28924 | 25.28686 | 35875 ft | 435 kts | 1° |
| 2026-04-26 15:45 | 64.34959 | 25.29478 | 35520 ft | 433 kts | 1° |
| 2026-04-26 15:45 | 64.37971 | 25.29864 | 35280 ft | 432 kts | 1° |
| 2026-04-26 15:46 | 64.43991 | 25.30626 | 34840 ft | 433 kts | 1° |
| 2026-04-26 15:46 | 64.47001 | 25.31014 | 34607 ft | 433 kts | 2° |
| 2026-04-26 15:46 | 64.49970 | 25.31400 | 34385 ft | 432 kts | 2° |
| 2026-04-26 15:46 | 64.51999 | 25.31662 | 34234 ft | 431 kts | 1° |
| 2026-04-26 15:47 | 64.55967 | 25.32174 | 33939 ft | 429 kts | 2° |
| 2026-04-26 15:47 | 64.61866 | 25.32963 | 33415 ft | 424 kts | 2° |
| 2026-04-26 15:47 | 64.64805 | 25.33353 | 33143 ft | 421 kts | 2° |
| 2026-04-26 15:48 | 64.67727 | 25.33739 | 32900 ft | 418 kts | 2° |
| 2026-04-26 15:48 | 64.70629 | 25.34125 | 32632 ft | 416 kts | 2° |
| 2026-04-26 15:48 | 64.73515 | 25.34508 | 32403 ft | 413 kts | 2° |
| 2026-04-26 15:48 | 64.76386 | 25.34889 | 32135 ft | 410 kts | 2° |
| 2026-04-26 15:49 | 64.79184 | 25.35257 | 31700 ft | 406 kts | 2° |
| 2026-04-26 15:49 | 64.81990 | 25.35626 | 31240 ft | 402 kts | 2° |
| 2026-04-26 15:49 | 64.84770 | 25.35994 | 30775 ft | 398 kts | 2° |
| 2026-04-26 15:49 | 64.87530 | 25.36364 | 30326 ft | 395 kts | 2° |
| 2026-04-26 15:50 | 64.90264 | 25.36729 | 29856 ft | 392 kts | 2° |
| 2026-04-26 15:50 | 64.92980 | 25.37093 | 29361 ft | 387 kts | 2° |
| 2026-04-26 15:50 | 64.95618 | 25.37448 | 28928 ft | 381 kts | 2° |
| 2026-04-26 15:50 | 64.98251 | 25.37802 | 28500 ft | 376 kts | 2° |
| 2026-04-26 15:51 | 65.00843 | 25.38150 | 28072 ft | 371 kts | 2° |
| 2026-04-26 15:51 | 65.03408 | 25.38494 | 27673 ft | 365 kts | 2° |
| 2026-04-26 15:51 | 65.05932 | 25.38838 | 27271 ft | 361 kts | 2° |
| 2026-04-26 15:51 | 65.08427 | 25.39177 | 26881 ft | 357 kts | 2° |
| 2026-04-26 15:52 | 65.10899 | 25.39508 | 26498 ft | 354 kts | 2° |
| 2026-04-26 15:52 | 65.13347 | 25.39838 | 26121 ft | 351 kts | 2° |
| 2026-04-26 15:52 | 65.15774 | 25.40171 | 25747 ft | 347 kts | 2° |
| 2026-04-26 15:52 | 65.17366 | 25.40392 | 25505 ft | 344 kts | 3° |
| 2026-04-26 15:53 | 65.20520 | 25.40830 | 25027 ft | 339 kts | 3° |
| 2026-04-26 15:53 | 65.22864 | 25.41157 | 24673 ft | 335 kts | 3° |
| 2026-04-26 15:53 | 65.25190 | 25.41484 | 24325 ft | 331 kts | 3° |
| 2026-04-26 15:53 | 65.27480 | 25.41802 | 23962 ft | 328 kts | 3° |
| 2026-04-26 15:54 | 65.29719 | 25.42107 | 23611 ft | 324 kts | 3° |
| 2026-04-26 15:54 | 65.31962 | 25.42414 | 23219 ft | 321 kts | 3° |
| 2026-04-26 15:54 | 65.34176 | 25.42720 | 22846 ft | 316 kts | 3° |
| 2026-04-26 15:54 | 65.36352 | 25.43019 | 22492 ft | 310 kts | 3° |
| 2026-04-26 15:55 | 65.38503 | 25.43312 | 22133 ft | 308 kts | 3° |
| 2026-04-26 15:55 | 65.40641 | 25.43607 | 21782 ft | 307 kts | 3° |
| 2026-04-26 15:55 | 65.42780 | 25.43906 | 21416 ft | 307 kts | 4° |
| 2026-04-26 15:55 | 65.44887 | 25.44203 | 21064 ft | 306 kts | 4° |
| 2026-04-26 15:56 | 65.47011 | 25.44502 | 20694 ft | 305 kts | 4° |
| 2026-04-26 15:56 | 65.49124 | 25.44803 | 20327 ft | 304 kts | 4° |
| 2026-04-26 15:56 | 65.51228 | 25.45106 | 19964 ft | 302 kts | 4° |
| 2026-04-26 15:56 | 65.53326 | 25.45405 | 19594 ft | 300 kts | 4° |
| 2026-04-26 15:57 | 65.55406 | 25.45697 | 19231 ft | 299 kts | 4° |
| 2026-04-26 15:57 | 65.57485 | 25.45985 | 18864 ft | 298 kts | 4° |
| 2026-04-26 15:57 | 65.59555 | 25.46269 | 18503 ft | 297 kts | 4° |
| 2026-04-26 15:57 | 65.60918 | 25.46457 | 18267 ft | 296 kts | 4° |
| 2026-04-26 15:58 | 65.63636 | 25.46837 | 17745 ft | 293 kts | 4° |
| 2026-04-26 15:58 | 65.65669 | 25.47121 | 17390 ft | 291 kts | 4° |
| 2026-04-26 15:58 | 65.67694 | 25.47404 | 17032 ft | 291 kts | 4° |
| 2026-04-26 15:58 | 65.69715 | 25.47692 | 16671 ft | 289 kts | 4° |
| 2026-04-26 15:59 | 65.71695 | 25.47979 | 16324 ft | 287 kts | 4° |
| 2026-04-26 15:59 | 65.73684 | 25.48264 | 15976 ft | 285 kts | 4° |
| 2026-04-26 15:59 | 65.75671 | 25.48547 | 15731 ft | 286 kts | 4° |
| 2026-04-26 15:59 | 65.77661 | 25.48829 | 15396 ft | 286 kts | 4° |
| 2026-04-26 16:00 | 65.79638 | 25.49110 | 15046 ft | 284 kts | 5° |
| 2026-04-26 16:00 | 65.81600 | 25.49392 | 14697 ft | 281 kts | 5° |
| 2026-04-26 16:00 | 65.83554 | 25.49676 | 14346 ft | 280 kts | 5° |
| 2026-04-26 16:00 | 65.85500 | 25.49961 | 14001 ft | 280 kts | 4° |
| 2026-04-26 16:01 | 65.87422 | 25.50240 | 13648 ft | 280 kts | 5° |
| 2026-04-26 16:01 | 65.89361 | 25.50516 | 13287 ft | 277 kts | 5° |
| 2026-04-26 16:01 | 65.91280 | 25.50789 | 12938 ft | 274 kts | 4° |
| 2026-04-26 16:01 | 65.93182 | 25.51067 | 12606 ft | 273 kts | 4° |
| 2026-04-26 16:02 | 65.95075 | 25.51341 | 12258 ft | 272 kts | 4° |
| 2026-04-26 16:02 | 65.96944 | 25.51611 | 11928 ft | 271 kts | 4° |
| 2026-04-26 16:02 | 65.98818 | 25.51881 | 11590 ft | 268 kts | 4° |
| 2026-04-26 16:02 | 66.00075 | 25.52065 | 11372 ft | 266 kts | 4° |
| 2026-04-26 16:03 | 66.02519 | 25.52423 | 10937 ft | 265 kts | 4° |
| 2026-04-26 16:03 | 66.04359 | 25.52698 | 10611 ft | 265 kts | 4° |
| 2026-04-26 16:03 | 66.06199 | 25.52966 | 10280 ft | 263 kts | 4° |
| 2026-04-26 16:03 | 66.08018 | 25.53225 | 10163 ft | 263 kts | 3° |
| 2026-04-26 16:04 | 66.09851 | 25.53419 | 10055 ft | 265 kts | 2° |
| 2026-04-26 16:04 | 66.11702 | 25.53563 | 9835 ft | 267 kts | 1° |
| 2026-04-26 16:04 | 66.13539 | 25.53692 | 9427 ft | 267 kts | 1° |
| 2026-04-26 16:04 | 66.15388 | 25.53827 | 9064 ft | 264 kts | 1° |
| 2026-04-26 16:05 | 66.17220 | 25.53966 | 8713 ft | 262 kts | 2° |
| 2026-04-26 16:05 | 66.19036 | 25.54110 | 8358 ft | 260 kts | 2° |
| 2026-04-26 16:05 | 66.20840 | 25.54255 | 8010 ft | 258 kts | 1° |
| 2026-04-26 16:05 | 66.22633 | 25.54391 | 7667 ft | 258 kts | 1° |
| 2026-04-26 16:06 | 66.24425 | 25.54526 | 7321 ft | 256 kts | 1° |
| 2026-04-26 16:06 | 66.26204 | 25.54663 | 6983 ft | 255 kts | 1° |
| 2026-04-26 16:06 | 66.27950 | 25.54798 | 6643 ft | 253 kts | 1° |
| 2026-04-26 16:06 | 66.29710 | 25.54937 | 6300 ft | 251 kts | 2° |
| 2026-04-26 16:07 | 66.31457 | 25.55074 | 5962 ft | 250 kts | 1° |
| 2026-04-26 16:07 | 66.33189 | 25.55207 | 5620 ft | 248 kts | 1° |
| 2026-04-26 16:07 | 66.34906 | 25.55340 | 5290 ft | 245 kts | 1° |
| 2026-04-26 16:07 | 66.36577 | 25.55475 | 4958 ft | 239 kts | 1° |
| 2026-04-26 16:08 | 66.38209 | 25.55611 | 4649 ft | 229 kts | 1° |
| 2026-04-26 16:08 | 66.39242 | 25.55698 | 4441 ft | 219 kts | 1° |
| 2026-04-26 16:08 | 66.41191 | 25.55864 | 4096 ft | 201 kts | 2° |
| 2026-04-26 16:08 | 66.42488 | 25.56703 | 3814 ft | 191 kts | 24° |
| 2026-04-26 16:09 | 66.43538 | 25.58567 | 3555 ft | 179 kts | 34° |
| 2026-04-26 16:09 | 66.44509 | 25.60409 | 3313 ft | 169 kts | 33° |
| 2026-04-26 16:09 | 66.45426 | 25.62136 | 3087 ft | 161 kts | 33° |
| 2026-04-26 16:09 | 66.46303 | 25.63788 | 2879 ft | 153 kts | 32° |
| 2026-04-26 16:10 | 66.47128 | 25.65344 | 2669 ft | 148 kts | 32° |
| 2026-04-26 16:10 | 66.47914 | 25.66828 | 2493 ft | 138 kts | 32° |
| 2026-04-26 16:10 | 66.48676 | 25.68258 | 2301 ft | 135 kts | 31° |
| 2026-04-26 16:10 | 66.49427 | 25.69673 | 2114 ft | 134 kts | 32° |
| 2026-04-26 16:11 | 66.50162 | 25.71101 | 1934 ft | 134 kts | 33° |
| 2026-04-26 16:11 | 66.50890 | 25.72551 | 1785 ft | 134 kts | 33° |
| 2026-04-26 16:11 | 66.51623 | 25.73975 | 1584 ft | 133 kts | 31° |
| 2026-04-26 16:11 | 66.52371 | 25.75348 | 1372 ft | 134 kts | 30° |
| 2026-04-26 16:12 | 66.53127 | 25.76700 | 1231 ft | 134 kts | 30° |
| 2026-04-26 16:12 | 66.53880 | 25.78089 | 1047 ft | 134 kts | 33° |
| 2026-04-26 16:12 | 66.55351 | 25.80889 | 684 ft | 134 kts | 33° |
| 2026-04-26 16:13 | 66.56047 | 25.82199 | 628 ft | 108 kts | 34° |
| 2026-04-26 16:13 | 66.56510 | 25.83056 | 635 ft | 52 kts | 36° |
| 2026-04-26 16:13 | 66.56614 | 25.83436 | 634 ft | 23 kts | 110° |
| 2026-04-26 16:13 | 66.56533 | 25.83655 | 636 ft | 14 kts | 175° |
| 2026-04-26 16:14 | 66.56446 | 25.83525 | 636 ft | 16 kts | 218° |
| 2026-04-26 16:14 | 66.56355 | 25.83349 | 637 ft | 17 kts | 217° |
| 2026-04-26 16:14 | 66.56152 | 25.82962 | 637 ft | 20 kts | 217° |
| 2026-04-26 16:15 | 66.56056 | 25.82775 | 633 ft | 11 kts | 218° |
| 2026-04-26 16:15 | 66.55984 | 25.82636 | 630 ft | 9 kts | 216° |
| 2026-04-26 16:15 | 66.55924 | 25.82657 | 626 ft | 10 kts | 156° |
| 2026-04-26 16:16 | 66.55872 | 25.82717 | 628 ft | 2 kts | 155° |
| 2026-04-26 16:16 | 66.55866 | 25.82724 | 630 ft | 0 kts | 155° |